Airfield :
LOGIN :

Register | Disclaimer

   EN    FR    IT 

 










Legend :    VFR   Marginal VFR   IFR   Intensive IFR   Very Intensive IFR
Visi :
Ceiling :
>= 8 km
>= 3000ft
5 to 8 km
1000 to 3000 ft
1500m to 5 km
500 to 1000 ft
800 to 1500m
200 to 500 ft
< 800m
< 200 ft
Symbols :   Thunderstorms  Fog  Heavy snow  Heavy precipitations  Wind > 20 kt
SIGMETs :     Misc.  Thunderstorms  Icing  Turbulence  Mountain Waves  Volcanic Ashes






- Airport Elevation : 56 ft


LPOV - Ovar Air Base

CURRENT METAR :
  • 041100Z 24008KT 200V280 9999 FEW009 21/17 Q1018

EXPIRED METARs :
  • 041000Z 17004KT 110V220 9999 SCT009 BKN015 20/17 Q1018
  • 040900Z 16004KT 120V210 8000 BKN008 SCT012 18/16 Q1018

TAF TAF LPOV
Valid from the 04 at 12:00 until the 05 at 12:00 UTC


041101Z 0412/0512 16005KT 9999 FEW016
BECMG 0412/0414 29008KT
BECMG 0419/0422 VRB02KT 6000 SCT006
PROB40 0422/0509 0200 FG BKN002
BECMG 0509/0511 28008KT 9999 SCT020



MET'MAP, your aeronautical weather chart ! - Copyright ORBIFLY December 2007 - Disclaimer

ORBIFLY MET'MAP TEAM :

Programming & Development : Alexandra Zaïnal
Original concept : Baudouin d'Aumeries
Technical & hardware support : Manuel Goepfert
Assistance : Marc-Olivier Méhu




SOURCES & CREDITS :

   NOAA